Disney Wonder — C6QM8 — position and weather

sailwx.info

Track history (hours):
 
Tides and Currents Weather Stations Pressure Air Temp Water Temp Dewpoint Dewpoint Depression Visibility Wind Speed Wind Dir Waves Ship Positions

Disney Wonder

Last reported at 2020-Apr-03 07:07 UTC. Time now 2020-Apr-03 08:51 UTC.
Position N 32°08' W 118°10'.

Length 301 m; draft 8.2 m.

Type: Passenger vessel. MMSI: 308457000.

Date/timePositionNaut miles runAvg speedWind from/ knotsBaromVisibWave heightAir tempDewpointWater temp
2020-Apr-03 07:07N 32°08' W 118°10'4 2.0
2020-Apr-03 05:00N 32°12' W 118°12'8 8.0 200 / 101018.4 15.011.316.0
2020-Apr-03 04:00N 32°20' W 118°10'4 6.9
2020-Apr-03 03:30N 32°22' W 118°07'7 6.9
2020-Apr-03 02:31N 32°28' W 118°02'3 5.5
2020-Apr-03 02:00N 32°30' W 118°00'5 5.1 340 / 111018.410.8 15.013.216.0
2020-Apr-03 01:00N 32°30' W 117°54'8 7.8 320 / 91018.410.8 16.012.416.0
2020-Apr-03 00:00N 32°36' W 118°00'1211.8 310 / 101018.410.8 16.012.416.0
2020-Apr-02 23:00N 32°30' W 118°12'5 3.1 280 / 91017.410.8 14.012.216.0
2020-Apr-02 21:31N 32°28' W 118°17'4 7.2
2020-Apr-02 21:00N 32°25' W 118°14'11 7.1
2020-Apr-02 19:30N 32°18' W 118°05'4 7.2
2020-Apr-02 19:00N 32°15' W 118°02'4 7.2
2020-Apr-02 18:30N 32°13' W 117°59'815.9
2020-Apr-02 18:00N 32°06' W 117°54'3 1.2 210 / 161019.4 17.0 9.416.0
2020-Apr-02 15:30N 32°04' W 117°51'8 5.3
2020-Apr-02 14:00N 32°12' W 117°54'919.0 300 / 111017.410.8 14.010.216.0
2020-Apr-02 13:30N 32°18' W 118°03'2 4.4
2020-Apr-02 13:00N 32°18' W 118°00'1212.3 300 / 131017.410.8 15.011.316.0
2020-Apr-02 12:01N 32°24' W 118°13'8477.8
2020-Apr-02 12:00N 32°18' W 118°06'2 1.7 320 / 121017.410.8 14.010.216.0
2020-Apr-02 11:00N 32°18' W 118°08'4 7.2
2020-Apr-02 10:27N 32°16' W 118°04'7 7.2
2020-Apr-02 09:27N 32°11' W 117°58'4 2.4
2020-Apr-02 07:53N 32°07' W 117°59'3 7.9
2020-Apr-02 07:30N 32°09' W 118°02'17 8.3
2020-Apr-02 05:30N 32°22' W 118°14'18 6.0
2020-Apr-02 02:30N 32°06' W 118°04'3 6.7
2020-Apr-02 02:00N 32°03' W 118°02'2 0.6
2020-Apr-01 23:00N 32°02' W 118°00'4 8.6
2020-Apr-01 22:30N 32°06' W 118°04'8 8.2
2020-Apr-01 21:30N 32°12' W 118°09'4 8.0
2020-Apr-01 21:00N 32°16' W 118°11'14 5.5
2020-Apr-01 18:30N 32°28' W 118°03'4 7.0
2020-Apr-01 18:00N 32°30' W 118°01'7 6.8
2020-Apr-01 17:00N 32°36' W 117°55'3 6.1
2020-Apr-01 16:30N 32°36' W 117°52'30 4.9
2020-Apr-01 10:30N 32°08' W 118°03'13 5.0
2020-Apr-01 08:01N 32°15' W 118°16'4 7.8
2020-Apr-01 07:30N 32°18' W 118°13'58 6.1
2020-Mar-31 21:58N 32°43' W 117°10'0 0.0
2020-Mar-31 20:58N 32°43' W 117°10'0 0.0
2020-Mar-31 20:28N 32°43' W 117°10'0 0.0
2020-Mar-31 17:55N 32°43' W 117°10'0 0.0
2020-Mar-31 16:28N 32°43' W 117°10'0 0.0
2020-Mar-31 15:55N 32°43' W 117°10'0 0.0
2020-Mar-31 11:28N 32°43' W 117°10'0 0.0
2020-Mar-31 10:55N 32°43' W 117°10'0 0.0
2020-Mar-31 09:58N 32°43' W 117°10'0 0.0
2020-Mar-31 09:28N 32°43' W 117°10'0 0.0
2020-Mar-31 08:28N 32°43' W 117°10'0 0.0
2020-Mar-31 07:28N 32°43' W 117°10'0 0.0
2020-Mar-31 06:28N 32°43' W 117°10'0 0.0
2020-Mar-31 04:58N 32°43' W 117°10'0 0.0
2020-Mar-31 04:28N 32°43' W 117°10'0 0.0
2020-Mar-31 03:28N 32°43' W 117°10'0 0.0
2020-Mar-31 00:58N 32°43' W 117°10'0 0.0
2020-Mar-30 23:28N 32°43' W 117°10'0 0.0
2020-Mar-30 21:22N 32°43' W 117°10'0 0.0
2020-Mar-30 20:58N 32°43' W 117°10'0 0.0
2020-Mar-30 17:28N 32°43' W 117°10'0 0.0
2020-Mar-30 16:28N 32°43' W 117°10'0 0.0
2020-Mar-30 14:28N 32°43' W 117°10'0 0.0
2020-Mar-30 13:58N 32°43' W 117°10'0 0.0
2020-Mar-30 11:58N 32°43' W 117°10'0 0.0
2020-Mar-30 10:28N 32°43' W 117°10'0 0.0
2020-Mar-30 08:28N 32°43' W 117°10'0 0.0
2020-Mar-30 07:58N 32°43' W 117°10'0 0.0
2020-Mar-30 05:58N 32°43' W 117°10'0 0.0
2020-Mar-30 05:28N 32°43' W 117°10'0 0.0
2020-Mar-30 04:28N 32°43' W 117°10'0 0.0
2020-Mar-30 01:58N 32°43' W 117°10'0 0.0
2020-Mar-30 01:28N 32°43' W 117°10'0 0.0
2020-Mar-29 22:28N 32°43' W 117°10'0 0.0
2020-Mar-29 21:28N 32°43' W 117°10'0 0.0
2020-Mar-29 20:28N 32°43' W 117°10'0 0.0
2020-Mar-29 19:28N 32°43' W 117°10'0 0.0
2020-Mar-29 18:58N 32°43' W 117°10'0 0.0
2020-Mar-29 17:58N 32°43' W 117°10'0 0.0
2020-Mar-29 17:28N 32°43' W 117°10'0 0.0
2020-Mar-29 16:28N 32°43' W 117°10'0 0.0
2020-Mar-29 14:28N 32°43' W 117°10'0 0.0
2020-Mar-29 13:28N 32°43' W 117°10'0 0.0
2020-Mar-29 12:55N 32°43' W 117°10'0 0.0
2020-Mar-29 12:28N 32°43' W 117°10'0 0.0
2020-Mar-29 11:28N 32°43' W 117°10'0 0.0
2020-Mar-29 08:58N 32°43' W 117°10'0 0.0
2020-Mar-29 03:28N 32°43' W 117°10'0 0.0
2020-Mar-29 02:28N 32°43' W 117°10'0 0.0
2020-Mar-28 23:58N 32°43' W 117°10'0 0.0
2020-Mar-28 23:28N 32°43' W 117°10'0 0.0
2020-Mar-28 20:58N 32°43' W 117°10'0 0.0
2020-Mar-28 19:28N 32°43' W 117°10'0 0.0
2020-Mar-28 15:28N 32°43' W 117°10'0 0.0
2020-Mar-28 12:28N 32°43' W 117°10'0 0.0
2020-Mar-28 11:58N 32°43' W 117°10'0 0.0
2020-Mar-28 11:28N 32°43' W 117°10'0 0.0
2020-Mar-28 08:28N 32°43' W 117°10'0 0.0
2020-Mar-28 06:28N 32°43' W 117°10'0 0.0
2020-Mar-28 05:58N 32°43' W 117°10'0 0.0
2020-Mar-28 02:58N 32°43' W 117°10'0 0.0
2020-Mar-28 02:28N 32°43' W 117°10'0 0.0
2020-Mar-28 01:58N 32°43' W 117°10'0 0.0
2020-Mar-28 00:58N 32°43' W 117°10'0 0.0
2020-Mar-27 22:28N 32°43' W 117°10'0 0.0
2020-Mar-27 21:28N 32°43' W 117°10'0 0.0
2020-Mar-27 16:52N 32°43' W 117°10'0 0.0
2020-Mar-27 16:28N 32°43' W 117°10'0 0.0
2020-Mar-27 16:00N 32°43' W 117°10'6 5.5
2020-Mar-27 15:00N 32°38' W 117°14'15 9.7
2020-Mar-27 13:30N 32°36' W 117°31'8 8.1
2020-Mar-27 12:30N 32°37' W 117°40'4 8.3
2020-Mar-27 12:00N 32°38' W 117°45'12 8.1
2020-Mar-27 10:30N 32°36' W 117°59'3 7.0
2020-Mar-27 10:00N 32°33' W 117°58'14 6.8
2020-Mar-27 08:00N 32°24' W 117°46'8 1.8
2020-Mar-27 03:30N 32°21' W 117°37'4 0.6
2020-Mar-26 21:30N 32°25' W 117°37'3 6.4
2020-Mar-26 21:00N 32°23' W 117°40'23 7.6
2020-Mar-26 18:00N 32°33' W 118°04'4 7.2
2020-Mar-26 17:30N 32°33' W 118°08'13 5.1
2020-Mar-26 15:00N 32°21' W 118°03'11 6.9
2020-Mar-26 13:29N 32°13' W 117°55'16 2.0
2020-Mar-26 05:45N 32°27' W 118°03'3 7.6
2020-Mar-26 05:22N 32°29' W 118°01'6 7.6
2020-Mar-26 04:30N 32°34' W 117°56'7 6.8
2020-Mar-26 03:30N 32°37' W 117°49'33 7.2
2020-Mar-25 22:59N 32°43' W 117°10'0 0.0
2020-Mar-25 20:29N 32°43' W 117°10'0 0.0
2020-Mar-25 15:29N 32°43' W 117°10'0 0.0
2020-Mar-25 13:29N 32°43' W 117°10'0 0.0
2020-Mar-25 12:59N 32°43' W 117°10'0 0.0
2020-Mar-25 10:29N 32°43' W 117°10'0 0.0
2020-Mar-25 08:29N 32°43' W 117°10'0 0.0
2020-Mar-25 07:59N 32°43' W 117°10'0 0.0
2020-Mar-25 05:29N 32°43' W 117°10'0 0.0
2020-Mar-25 01:29N 32°43' W 117°10'0 0.0
2020-Mar-25 00:59N 32°43' W 117°10'0 0.0
2020-Mar-25 00:29N 32°43' W 117°10'0 0.0
2020-Mar-24 22:59N 32°43' W 117°10'0 0.0
2020-Mar-24 21:29N 32°43' W 117°10'0 0.0
2020-Mar-24 19:59N 32°43' W 117°10'0 0.0
2020-Mar-24 19:29N 32°43' W 117°10'0 0.0
2020-Mar-24 18:59N 32°43' W 117°10'0 0.0
2020-Mar-24 17:29N 32°43' W 117°10'0 0.0
2020-Mar-24 16:59N 32°43' W 117°10'0 0.0
2020-Mar-24 15:29N 32°43' W 117°10'0 0.0
2020-Mar-24 13:59N 32°43' W 117°10'0 0.0
2020-Mar-24 13:29N 32°43' W 117°10'0 0.0
2020-Mar-24 12:59N 32°43' W 117°10'0 0.0
2020-Mar-24 09:59N 32°43' W 117°10'0 0.0
2020-Mar-24 08:29N 32°43' W 117°10'0 0.0
2020-Mar-24 07:59N 32°43' W 117°10'0 0.0
2020-Mar-24 07:29N 32°43' W 117°10'  
Track history (hours):
 
Tides and Currents Weather Stations Pressure Air Temp Water Temp Dewpoint Dewpoint Depression Visibility Wind Speed Wind Dir Waves Ship Positions

Disney Wonder

Last reported at 2020-Apr-03 07:07 UTC. Time now 2020-Apr-03 08:51 UTC.
Position N 32°08' W 118°10'.

Length 301 m; draft 8.2 m.

Type: Passenger vessel. MMSI: 308457000.

Date/timePositionNaut miles runAvg speedWind from/ knotsBaromVisibWave heightAir tempDewpointWater temp
2020-Apr-03 07:07N 32°08' W 118°10'4 2.0
2020-Apr-03 05:00N 32°12' W 118°12'8 8.0 200 / 101018.4 15.011.316.0
2020-Apr-03 04:00N 32°20' W 118°10'4 6.9
2020-Apr-03 03:30N 32°22' W 118°07'7 6.9
2020-Apr-03 02:31N 32°28' W 118°02'3 5.5
2020-Apr-03 02:00N 32°30' W 118°00'5 5.1 340 / 111018.410.8 15.013.216.0
2020-Apr-03 01:00N 32°30' W 117°54'8 7.8 320 / 91018.410.8 16.012.416.0
2020-Apr-03 00:00N 32°36' W 118°00'1211.8 310 / 101018.410.8 16.012.416.0
2020-Apr-02 23:00N 32°30' W 118°12'5 3.1 280 / 91017.410.8 14.012.216.0
2020-Apr-02 21:31N 32°28' W 118°17'4 7.2
2020-Apr-02 21:00N 32°25' W 118°14'11 7.1
2020-Apr-02 19:30N 32°18' W 118°05'4 7.2
2020-Apr-02 19:00N 32°15' W 118°02'4 7.2
2020-Apr-02 18:30N 32°13' W 117°59'815.9
2020-Apr-02 18:00N 32°06' W 117°54'3 1.2 210 / 161019.4 17.0 9.416.0
2020-Apr-02 15:30N 32°04' W 117°51'8 5.3
2020-Apr-02 14:00N 32°12' W 117°54'919.0 300 / 111017.410.8 14.010.216.0
2020-Apr-02 13:30N 32°18' W 118°03'2 4.4
2020-Apr-02 13:00N 32°18' W 118°00'1212.3 300 / 131017.410.8 15.011.316.0
2020-Apr-02 12:01N 32°24' W 118°13'8477.8
2020-Apr-02 12:00N 32°18' W 118°06'2 1.7 320 / 121017.410.8 14.010.216.0
2020-Apr-02 11:00N 32°18' W 118°08'4 7.2
2020-Apr-02 10:27N 32°16' W 118°04'7 7.2
2020-Apr-02 09:27N 32°11' W 117°58'4 2.4
2020-Apr-02 07:53N 32°07' W 117°59'3 7.9
2020-Apr-02 07:30N 32°09' W 118°02'17 8.3
2020-Apr-02 05:30N 32°22' W 118°14'18 6.0
2020-Apr-02 02:30N 32°06' W 118°04'3 6.7
2020-Apr-02 02:00N 32°03' W 118°02'2 0.6
2020-Apr-01 23:00N 32°02' W 118°00'4 8.6
2020-Apr-01 22:30N 32°06' W 118°04'8 8.2
2020-Apr-01 21:30N 32°12' W 118°09'4 8.0
2020-Apr-01 21:00N 32°16' W 118°11'14 5.5
2020-Apr-01 18:30N 32°28' W 118°03'4 7.0
2020-Apr-01 18:00N 32°30' W 118°01'7 6.8
2020-Apr-01 17:00N 32°36' W 117°55'3 6.1
2020-Apr-01 16:30N 32°36' W 117°52'30 4.9
2020-Apr-01 10:30N 32°08' W 118°03'13 5.0
2020-Apr-01 08:01N 32°15' W 118°16'4 7.8
2020-Apr-01 07:30N 32°18' W 118°13'58 6.1
2020-Mar-31 21:58N 32°43' W 117°10'0 0.0
2020-Mar-31 20:58N 32°43' W 117°10'0 0.0
2020-Mar-31 20:28N 32°43' W 117°10'0 0.0
2020-Mar-31 17:55N 32°43' W 117°10'0 0.0
2020-Mar-31 16:28N 32°43' W 117°10'0 0.0
2020-Mar-31 15:55N 32°43' W 117°10'0 0.0
2020-Mar-31 11:28N 32°43' W 117°10'0 0.0
2020-Mar-31 10:55N 32°43' W 117°10'0 0.0
2020-Mar-31 09:58N 32°43' W 117°10'0 0.0
2020-Mar-31 09:28N 32°43' W 117°10'0 0.0
2020-Mar-31 08:28N 32°43' W 117°10'0 0.0
2020-Mar-31 07:28N 32°43' W 117°10'0 0.0
2020-Mar-31 06:28N 32°43' W 117°10'0 0.0
2020-Mar-31 04:58N 32°43' W 117°10'0 0.0
2020-Mar-31 04:28N 32°43' W 117°10'0 0.0
2020-Mar-31 03:28N 32°43' W 117°10'0 0.0
2020-Mar-31 00:58N 32°43' W 117°10'0 0.0
2020-Mar-30 23:28N 32°43' W 117°10'0 0.0
2020-Mar-30 21:22N 32°43' W 117°10'0 0.0
2020-Mar-30 20:58N 32°43' W 117°10'0 0.0
2020-Mar-30 17:28N 32°43' W 117°10'0 0.0
2020-Mar-30 16:28N 32°43' W 117°10'0 0.0
2020-Mar-30 14:28N 32°43' W 117°10'0 0.0
2020-Mar-30 13:58N 32°43' W 117°10'0 0.0
2020-Mar-30 11:58N 32°43' W 117°10'0 0.0
2020-Mar-30 10:28N 32°43' W 117°10'0 0.0
2020-Mar-30 08:28N 32°43' W 117°10'0 0.0
2020-Mar-30 07:58N 32°43' W 117°10'0 0.0
2020-Mar-30 05:58N 32°43' W 117°10'0 0.0
2020-Mar-30 05:28N 32°43' W 117°10'0 0.0
2020-Mar-30 04:28N 32°43' W 117°10'0 0.0
2020-Mar-30 01:58N 32°43' W 117°10'0 0.0
2020-Mar-30 01:28N 32°43' W 117°10'0 0.0
2020-Mar-29 22:28N 32°43' W 117°10'0 0.0
2020-Mar-29 21:28N 32°43' W 117°10'0 0.0
2020-Mar-29 20:28N 32°43' W 117°10'0 0.0
2020-Mar-29 19:28N 32°43' W 117°10'0 0.0
2020-Mar-29 18:58N 32°43' W 117°10'0 0.0
2020-Mar-29 17:58N 32°43' W 117°10'0 0.0
2020-Mar-29 17:28N 32°43' W 117°10'0 0.0
2020-Mar-29 16:28N 32°43' W 117°10'0 0.0
2020-Mar-29 14:28N 32°43' W 117°10'0 0.0
2020-Mar-29 13:28N 32°43' W 117°10'0 0.0
2020-Mar-29 12:55N 32°43' W 117°10'0 0.0
2020-Mar-29 12:28N 32°43' W 117°10'0 0.0
2020-Mar-29 11:28N 32°43' W 117°10'0 0.0
2020-Mar-29 08:58N 32°43' W 117°10'0 0.0
2020-Mar-29 03:28N 32°43' W 117°10'0 0.0
2020-Mar-29 02:28N 32°43' W 117°10'0 0.0
2020-Mar-28 23:58N 32°43' W 117°10'0 0.0
2020-Mar-28 23:28N 32°43' W 117°10'0 0.0
2020-Mar-28 20:58N 32°43' W 117°10'0 0.0
2020-Mar-28 19:28N 32°43' W 117°10'0 0.0
2020-Mar-28 15:28N 32°43' W 117°10'0 0.0
2020-Mar-28 12:28N 32°43' W 117°10'0 0.0
2020-Mar-28 11:58N 32°43' W 117°10'0 0.0
2020-Mar-28 11:28N 32°43' W 117°10'0 0.0
2020-Mar-28 08:28N 32°43' W 117°10'0 0.0
2020-Mar-28 06:28N 32°43' W 117°10'0 0.0
2020-Mar-28 05:58N 32°43' W 117°10'0 0.0
2020-Mar-28 02:58N 32°43' W 117°10'0 0.0
2020-Mar-28 02:28N 32°43' W 117°10'0 0.0
2020-Mar-28 01:58N 32°43' W 117°10'0 0.0
2020-Mar-28 00:58N 32°43' W 117°10'0 0.0
2020-Mar-27 22:28N 32°43' W 117°10'0 0.0
2020-Mar-27 21:28N 32°43' W 117°10'0 0.0
2020-Mar-27 16:52N 32°43' W 117°10'0 0.0
2020-Mar-27 16:28N 32°43' W 117°10'0 0.0
2020-Mar-27 16:00N 32°43' W 117°10'6 5.5
2020-Mar-27 15:00N 32°38' W 117°14'15 9.7
2020-Mar-27 13:30N 32°36' W 117°31'8 8.1
2020-Mar-27 12:30N 32°37' W 117°40'4 8.3
2020-Mar-27 12:00N 32°38' W 117°45'12 8.1
2020-Mar-27 10:30N 32°36' W 117°59'3 7.0
2020-Mar-27 10:00N 32°33' W 117°58'14 6.8
2020-Mar-27 08:00N 32°24' W 117°46'8 1.8
2020-Mar-27 03:30N 32°21' W 117°37'4 0.6
2020-Mar-26 21:30N 32°25' W 117°37'3 6.4
2020-Mar-26 21:00N 32°23' W 117°40'23 7.6
2020-Mar-26 18:00N 32°33' W 118°04'4 7.2
2020-Mar-26 17:30N 32°33' W 118°08'13 5.1
2020-Mar-26 15:00N 32°21' W 118°03'11 6.9
2020-Mar-26 13:29N 32°13' W 117°55'16 2.0
2020-Mar-26 05:45N 32°27' W 118°03'3 7.6
2020-Mar-26 05:22N 32°29' W 118°01'6 7.6
2020-Mar-26 04:30N 32°34' W 117°56'7 6.8
2020-Mar-26 03:30N 32°37' W 117°49'33 7.2
2020-Mar-25 22:59N 32°43' W 117°10'0 0.0
2020-Mar-25 20:29N 32°43' W 117°10'0 0.0
2020-Mar-25 15:29N 32°43' W 117°10'0 0.0
2020-Mar-25 13:29N 32°43' W 117°10'0 0.0
2020-Mar-25 12:59N 32°43' W 117°10'0 0.0
2020-Mar-25 10:29N 32°43' W 117°10'0 0.0
2020-Mar-25 08:29N 32°43' W 117°10'0 0.0
2020-Mar-25 07:59N 32°43' W 117°10'0 0.0
2020-Mar-25 05:29N 32°43' W 117°10'0 0.0
2020-Mar-25 01:29N 32°43' W 117°10'0 0.0
2020-Mar-25 00:59N 32°43' W 117°10'0 0.0
2020-Mar-25 00:29N 32°43' W 117°10'0 0.0
2020-Mar-24 22:59N 32°43' W 117°10'0 0.0
2020-Mar-24 21:29N 32°43' W 117°10'0 0.0
2020-Mar-24 19:59N 32°43' W 117°10'0 0.0
2020-Mar-24 19:29N 32°43' W 117°10'0 0.0
2020-Mar-24 18:59N 32°43' W 117°10'0 0.0
2020-Mar-24 17:29N 32°43' W 117°10'0 0.0
2020-Mar-24 16:59N 32°43' W 117°10'0 0.0
2020-Mar-24 15:29N 32°43' W 117°10'0 0.0
2020-Mar-24 13:59N 32°43' W 117°10'0 0.0
2020-Mar-24 13:29N 32°43' W 117°10'0 0.0
2020-Mar-24 12:59N 32°43' W 117°10'0 0.0
2020-Mar-24 09:59N 32°43' W 117°10'0 0.0
2020-Mar-24 08:29N 32°43' W 117°10'0 0.0
2020-Mar-24 07:59N 32°43' W 117°10'0 0.0
2020-Mar-24 07:29N 32°43' W 117°10'  

Dump ship's entire track history